createdAt,value
2018-05-02T00:01:04.182Z,14.65
2018-05-02T00:03:30.930Z,14.47
2018-05-02T00:06:01.413Z,14.72
2018-05-02T00:08:27.912Z,14.58
2018-05-02T00:10:54.619Z,14.45
2018-05-02T00:13:21.394Z,14.73
2018-05-02T00:15:48.149Z,14.37
2018-05-02T00:18:14.759Z,14.60
2018-05-02T00:20:41.452Z,14.91
2018-05-02T00:23:08.066Z,14.81
2018-05-02T00:25:34.698Z,14.57
2018-05-02T00:28:08.117Z,14.39
2018-05-02T00:30:34.659Z,14.76
2018-05-02T00:33:02.030Z,14.52
2018-05-02T00:35:28.735Z,14.75
2018-05-02T00:38:00.581Z,14.74
2018-05-02T00:40:27.305Z,14.72
2018-05-02T00:42:54.014Z,14.61
2018-05-02T00:45:20.669Z,14.53
2018-05-02T00:47:50.543Z,14.42
2018-05-02T00:50:17.026Z,14.56
2018-05-02T00:52:43.681Z,14.65
2018-05-02T00:55:10.213Z,14.53
2018-05-02T00:57:37.054Z,14.52
2018-05-02T01:00:03.657Z,14.43
2018-05-02T01:02:30.317Z,14.37
2018-05-02T01:04:57.040Z,14.57
2018-05-02T01:07:27.319Z,14.78
2018-05-02T01:09:54.945Z,14.76
2018-05-02T01:12:21.426Z,14.81
2018-05-02T01:14:48.037Z,14.44
2018-05-02T01:17:14.920Z,14.41
2018-05-02T01:19:41.733Z,14.71
2018-05-02T01:22:08.292Z,14.71
2018-05-02T01:24:35.131Z,14.82
2018-05-02T01:27:02.550Z,14.56
2018-05-02T01:29:32.949Z,14.68
2018-05-02T01:31:59.574Z,14.63
2018-05-02T01:34:26.177Z,14.60
2018-05-02T01:36:53.350Z,14.78
2018-05-02T01:39:19.964Z,14.65
2018-05-02T01:41:46.618Z,14.61
2018-05-02T01:44:13.154Z,14.51
2018-05-02T01:46:43.963Z,14.31
2018-05-02T01:49:22.394Z,14.38
2018-05-02T01:51:49.161Z,14.38
2018-05-02T01:54:15.893Z,14.19
2018-05-02T01:56:48.318Z,14.24
2018-05-02T01:59:14.882Z,14.27
2018-05-02T02:01:41.443Z,14.49
2018-05-02T02:04:08.010Z,14.56
2018-05-02T02:06:34.814Z,14.41
2018-05-02T02:09:01.382Z,14.26
2018-05-02T02:11:28.041Z,14.43
2018-05-02T02:13:54.785Z,14.36
2018-05-02T02:16:27.442Z,14.45
2018-05-02T02:18:54.105Z,14.42
2018-05-02T02:21:20.731Z,14.49
2018-05-02T02:23:47.661Z,14.36
2018-05-02T02:26:18.020Z,14.52
2018-05-02T02:28:44.682Z,14.17
2018-05-02T02:31:11.449Z,14.17
2018-05-02T02:33:38.132Z,14.18
2018-05-02T02:36:08.821Z,14.18
2018-05-02T02:38:35.462Z,14.28
2018-05-02T02:41:02.165Z,14.18
2018-05-02T02:43:28.784Z,14.30
2018-05-02T02:45:59.600Z,14.38
2018-05-02T02:48:26.296Z,14.25
2018-05-02T02:50:52.958Z,14.47
2018-05-02T02:53:19.629Z,14.52
2018-05-02T02:55:46.268Z,14.45
2018-05-02T02:58:13.000Z,14.48
2018-05-02T03:00:40.025Z,14.51
2018-05-02T03:03:06.772Z,14.52
2018-05-02T03:05:33.628Z,14.43
2018-05-02T03:08:00.335Z,14.59
2018-05-02T03:10:27.298Z,14.58
2018-05-02T03:12:53.871Z,14.50
2018-05-02T03:15:20.569Z,14.24
2018-05-02T03:17:51.947Z,14.39
2018-05-02T03:20:18.517Z,14.50
2018-05-02T03:22:45.117Z,14.43
2018-05-02T03:25:11.857Z,14.40
2018-05-02T03:27:41.997Z,14.33
2018-05-02T03:30:08.717Z,14.36
2018-05-02T03:32:35.453Z,14.44
2018-05-02T03:35:02.124Z,14.24
2018-05-02T03:37:32.525Z,14.33
2018-05-02T03:39:59.225Z,14.17
2018-05-02T03:42:25.985Z,14.17
2018-05-02T03:44:52.686Z,14.29
2018-05-02T03:47:23.492Z,14.50
2018-05-02T03:49:50.192Z,14.68
2018-05-02T03:52:16.918Z,14.74
2018-05-02T03:54:43.657Z,14.54
2018-05-02T03:57:13.951Z,14.77
2018-05-02T03:59:52.596Z,14.88
2018-05-02T04:02:31.134Z,14.87
2018-05-02T04:05:09.705Z,14.92
2018-05-02T04:07:40.023Z,14.87
2018-05-02T04:10:07.270Z,14.86
2018-05-02T04:12:34.381Z,14.84
2018-05-02T04:15:01.011Z,14.73
2018-05-02T04:17:30.907Z,15.13
2018-05-02T04:19:57.610Z,15.17
2018-05-02T04:22:24.289Z,15.01
2018-05-02T04:24:51.018Z,15.17
2018-05-02T04:27:24.785Z,15.03
2018-05-02T04:29:51.471Z,15.39
2018-05-02T04:32:18.165Z,15.46
2018-05-02T04:34:44.921Z,15.48
2018-05-02T04:37:14.986Z,15.70
2018-05-02T04:39:41.739Z,15.64
2018-05-02T04:42:08.418Z,15.10
2018-05-02T04:44:35.211Z,14.99
2018-05-02T04:47:05.573Z,15.18
2018-05-02T04:49:32.314Z,14.86
2018-05-02T04:52:03.781Z,14.97
2018-05-02T04:54:30.525Z,15.35
2018-05-02T04:57:01.735Z,15.68
2018-05-02T04:59:28.492Z,15.30
2018-05-02T05:01:55.417Z,15.45
2018-05-02T05:04:22.003Z,15.83
2018-05-02T05:06:49.750Z,15.87
2018-05-02T05:09:16.419Z,15.76
2018-05-02T05:11:43.166Z,16.12
2018-05-02T05:14:09.735Z,16.00
2018-05-02T05:16:40.167Z,15.46
2018-05-02T05:19:06.845Z,15.47
2018-05-02T05:21:33.538Z,15.85
2018-05-02T05:24:00.411Z,16.20
2018-05-02T05:26:28.257Z,16.72
2018-05-02T05:28:54.990Z,17.38
2018-05-02T05:31:21.669Z,18.10
2018-05-02T05:33:48.681Z,16.26
2018-05-02T05:36:18.637Z,16.13
2018-05-02T05:38:45.307Z,18.49
2018-05-02T05:41:12.606Z,16.93
2018-05-02T05:43:39.405Z,16.36
2018-05-02T05:46:09.198Z,16.56
2018-05-02T05:48:35.832Z,16.49
2018-05-02T05:51:02.437Z,15.51
2018-05-02T05:53:29.065Z,16.27
2018-05-02T05:55:56.944Z,15.78
2018-05-02T05:58:23.594Z,16.62
2018-05-02T06:00:50.324Z,16.49
2018-05-02T06:03:16.939Z,15.49
2018-05-02T06:05:47.177Z,15.38
2018-05-02T06:08:13.858Z,15.87
2018-05-02T06:10:40.539Z,16.43
2018-05-02T06:13:07.135Z,16.51
2018-05-02T06:15:37.904Z,16.53
2018-05-02T06:18:04.582Z,16.63
2018-05-02T06:20:31.296Z,16.07
2018-05-02T06:22:59.517Z,17.05
2018-05-02T06:25:31.253Z,17.33
2018-05-02T06:27:57.817Z,17.04
2018-05-02T06:30:24.437Z,17.57
2018-05-02T06:32:51.014Z,17.87
2018-05-02T06:35:22.746Z,18.04
2018-05-02T06:37:49.425Z,17.36
2018-05-02T06:40:15.987Z,16.65
2018-05-02T06:42:42.980Z,17.46
2018-05-02T06:45:11.154Z,17.28
2018-05-02T06:47:37.891Z,17.98
2018-05-02T06:50:04.590Z,18.15
2018-05-02T06:52:31.333Z,17.28
2018-05-02T06:54:58.029Z,18.26
2018-05-02T06:57:25.410Z,18.00
2018-05-02T06:59:52.021Z,17.97
2018-05-02T07:02:18.739Z,18.15
2018-05-02T07:04:45.521Z,18.53
2018-05-02T07:07:16.020Z,17.91
2018-05-02T07:09:42.607Z,17.86
2018-05-02T07:12:09.168Z,16.92
2018-05-02T07:14:35.769Z,17.33
2018-05-02T07:17:02.630Z,17.47
2018-05-02T07:19:29.338Z,17.39
2018-05-02T07:21:55.849Z,17.83
2018-05-02T07:24:22.823Z,18.54
2018-05-02T07:26:50.679Z,18.90
2018-05-02T07:29:17.408Z,18.82
2018-05-02T07:31:45.044Z,18.86
2018-05-02T07:34:11.629Z,18.72
2018-05-02T07:36:38.149Z,18.64
2018-05-02T07:39:04.783Z,18.56
2018-05-02T07:41:31.470Z,18.97
2018-05-02T07:43:58.190Z,18.72
2018-05-02T07:46:24.872Z,19.23
2018-05-02T07:48:51.569Z,19.64
2018-05-02T07:51:18.287Z,19.56
2018-05-02T07:53:44.988Z,19.15
2018-05-02T07:56:11.867Z,19.69
2018-05-02T07:58:38.619Z,20.00
2018-05-02T08:01:05.414Z,18.98
2018-05-02T08:03:32.160Z,19.75
2018-05-02T08:06:02.227Z,19.55
2018-05-02T08:08:28.744Z,19.84
2018-05-02T08:10:55.411Z,19.66
2018-05-02T08:13:22.069Z,20.34
2018-05-02T08:15:49.882Z,20.27
2018-05-02T08:18:16.593Z,19.63
2018-05-02T08:20:43.197Z,20.65
2018-05-02T08:23:09.897Z,19.76
2018-05-02T08:25:43.308Z,20.07
2018-05-02T08:28:09.885Z,20.54
2018-05-02T08:30:36.501Z,19.90
2018-05-02T08:33:03.173Z,21.03
2018-05-02T08:35:29.728Z,20.71
2018-05-02T08:37:56.285Z,19.79
2018-05-02T08:40:22.901Z,20.52
2018-05-02T08:42:49.532Z,20.72
2018-05-02T08:45:19.504Z,21.12
2018-05-02T08:47:46.356Z,20.72
2018-05-02T08:50:13.088Z,20.23
2018-05-02T08:52:39.697Z,20.46
2018-05-02T08:55:09.304Z,20.38
2018-05-02T08:57:35.991Z,20.37
2018-05-02T09:00:02.576Z,20.42
2018-05-02T09:02:29.283Z,20.86
2018-05-02T09:04:55.857Z,21.27
2018-05-02T09:07:22.793Z,21.36
2018-05-02T09:09:49.619Z,20.52
2018-05-02T09:12:16.195Z,20.49
2018-05-02T09:14:43.980Z,20.50
2018-05-02T09:17:10.702Z,20.82
2018-05-02T09:19:37.403Z,22.10
2018-05-02T09:22:04.012Z,22.29
2018-05-02T09:24:38.516Z,22.68
2018-05-02T09:27:05.289Z,22.52
2018-05-02T09:29:32.088Z,22.47
2018-05-02T09:31:58.978Z,21.62
2018-05-02T09:34:25.765Z,21.44
2018-05-02T09:36:52.473Z,22.39
2018-05-02T09:39:19.146Z,22.04
2018-05-02T09:41:45.721Z,22.07
2018-05-02T09:44:12.390Z,22.38
2018-05-02T09:46:42.224Z,22.56
2018-05-02T09:49:09.020Z,21.63
2018-05-02T09:51:36.245Z,22.91
2018-05-02T09:54:02.786Z,22.86
2018-05-02T09:56:35.645Z,22.66
2018-05-02T09:59:02.917Z,23.16
2018-05-02T10:01:29.653Z,22.18
2018-05-02T10:03:56.550Z,22.42
2018-05-02T10:06:23.369Z,23.10
2018-05-02T10:08:50.432Z,23.34
2018-05-02T10:11:17.726Z,22.44
2018-05-02T10:13:45.096Z,23.16
2018-05-02T10:16:18.633Z,21.43
2018-05-02T10:18:45.505Z,22.35
2018-05-02T10:21:12.185Z,23.20
2018-05-02T10:23:38.969Z,23.57
2018-05-02T10:26:09.008Z,22.17
2018-05-02T10:28:35.593Z,22.15
2018-05-02T10:31:02.245Z,22.64
2018-05-02T10:33:29.118Z,24.42
2018-05-02T10:35:59.824Z,23.51
2018-05-02T10:38:26.450Z,23.71
2018-05-02T10:40:53.062Z,23.79
2018-05-02T10:43:19.724Z,22.98
2018-05-02T10:45:51.787Z,23.55
2018-05-02T10:48:18.526Z,24.08
2018-05-02T10:50:45.435Z,23.44
2018-05-02T10:53:12.103Z,24.50
2018-05-02T10:55:42.545Z,22.69
2018-05-02T10:58:09.209Z,23.82
2018-05-02T11:00:35.806Z,23.20
2018-05-02T11:03:02.466Z,24.86
2018-05-02T11:05:33.479Z,23.25
2018-05-02T11:08:00.335Z,24.21
2018-05-02T11:10:27.049Z,24.44
2018-05-02T11:12:53.782Z,22.63
2018-05-02T11:15:23.848Z,23.79
2018-05-02T11:17:50.681Z,24.50
2018-05-02T11:20:17.398Z,24.08
2018-05-02T11:22:43.992Z,22.53
2018-05-02T11:25:14.914Z,24.34
2018-05-02T11:27:41.603Z,22.15
2018-05-02T11:30:08.213Z,23.58
2018-05-02T11:32:34.658Z,23.76
2018-05-02T11:35:01.687Z,22.68
2018-05-02T11:37:28.470Z,22.27
2018-05-02T11:39:55.302Z,22.66
2018-05-02T11:42:22.270Z,22.98
2018-05-02T11:44:57.157Z,22.18
2018-05-02T11:47:23.885Z,21.47
2018-05-02T11:49:50.591Z,21.21
2018-05-02T11:52:17.415Z,22.68
2018-05-02T11:54:45.058Z,23.12
2018-05-02T11:57:11.884Z,24.15
2018-05-02T11:59:38.500Z,22.78
2018-05-02T12:02:05.172Z,23.37
2018-05-02T12:04:45.618Z,23.68
2018-05-02T12:07:12.267Z,22.76
2018-05-02T12:09:39.113Z,23.48
2018-05-02T12:12:05.769Z,24.40
2018-05-02T12:14:36.413Z,23.68
2018-05-02T12:17:04.014Z,21.54
2018-05-02T12:19:30.776Z,22.15
2018-05-02T12:21:57.397Z,22.23
2018-05-02T12:24:27.736Z,23.87
2018-05-02T12:26:54.381Z,23.10
2018-05-02T12:29:20.989Z,23.20
2018-05-02T12:31:47.722Z,23.25
2018-05-02T12:34:15.398Z,23.27
2018-05-02T12:36:41.993Z,23.42
2018-05-02T12:39:08.672Z,23.53
2018-05-02T12:41:35.282Z,23.53
2018-05-02T12:44:02.034Z,23.34
2018-05-02T12:46:28.689Z,23.69
2018-05-02T12:48:55.510Z,22.39
2018-05-02T12:51:22.206Z,22.58
2018-05-02T12:53:48.904Z,23.99
2018-05-02T12:56:17.035Z,21.92
2018-05-02T12:58:43.649Z,22.22
2018-05-02T13:01:10.633Z,21.90
2018-05-02T13:03:37.863Z,22.24
2018-05-02T13:06:08.366Z,22.55
2018-05-02T13:08:34.877Z,23.37
2018-05-02T13:11:01.557Z,23.09
2018-05-02T13:13:28.197Z,24.12
2018-05-02T13:15:58.810Z,24.15
2018-05-02T13:18:25.453Z,22.40
2018-05-02T13:20:52.132Z,21.11
2018-05-02T13:23:19.314Z,22.90
2018-05-02T13:25:46.207Z,20.85
2018-05-02T13:28:13.414Z,21.90
2018-05-02T13:30:40.129Z,22.94
2018-05-02T13:33:08.280Z,22.04
2018-05-02T13:35:41.616Z,22.37
2018-05-02T13:38:08.293Z,22.30
2018-05-02T13:40:35.046Z,22.47
2018-05-02T13:43:01.771Z,22.46
2018-05-02T13:45:28.688Z,22.57
2018-05-02T13:47:55.235Z,20.09
2018-05-02T13:50:22.312Z,22.85
2018-05-02T13:52:49.274Z,21.99
2018-05-02T13:55:16.846Z,21.44
2018-05-02T13:57:43.640Z,22.98
2018-05-02T14:00:10.274Z,21.58
2018-05-02T14:02:36.938Z,22.08
2018-05-02T14:05:09.395Z,22.32
2018-05-02T14:07:36.025Z,21.28
2018-05-02T14:10:02.703Z,21.23
2018-05-02T14:12:29.266Z,21.95
2018-05-02T14:14:59.440Z,22.86
2018-05-02T14:17:26.405Z,22.37
2018-05-02T14:19:53.107Z,22.40
2018-05-02T14:22:19.694Z,21.82
2018-05-02T14:24:49.757Z,22.78
2018-05-02T14:27:16.485Z,22.25
2018-05-02T14:29:43.488Z,22.26
2018-05-02T14:32:10.175Z,22.71
2018-05-02T14:34:40.389Z,22.04
2018-05-02T14:37:06.958Z,21.82
2018-05-02T14:39:33.673Z,21.79
2018-05-02T14:42:00.362Z,21.80
2018-05-02T14:44:30.790Z,22.24
2018-05-02T14:46:57.492Z,21.93
2018-05-02T14:49:24.937Z,21.64
2018-05-02T14:51:51.878Z,22.13
2018-05-02T14:54:18.779Z,22.54
2018-05-02T14:56:45.342Z,22.22
2018-05-02T14:59:11.964Z,22.07
2018-05-02T15:01:38.596Z,22.34
2018-05-02T15:04:06.559Z,21.27
2018-05-02T15:06:33.049Z,21.33
2018-05-02T15:08:59.610Z,20.83
2018-05-02T15:11:26.361Z,21.61
2018-05-02T15:13:54.029Z,21.85
2018-05-02T15:16:20.680Z,21.93
2018-05-02T15:18:47.537Z,20.97
2018-05-02T15:21:14.490Z,20.52
2018-05-02T15:23:52.571Z,20.57
2018-05-02T15:26:19.183Z,21.19
2018-05-02T15:28:45.984Z,20.72
2018-05-02T15:31:12.643Z,23.00
2018-05-02T15:33:46.309Z,23.10
2018-05-02T15:36:13.014Z,22.79
2018-05-02T15:38:39.657Z,22.54
2018-05-02T15:41:06.305Z,23.26
2018-05-02T15:43:32.965Z,22.51
2018-05-02T15:45:59.733Z,22.63
2018-05-02T15:48:26.423Z,24.13
2018-05-02T15:50:53.114Z,22.48
2018-05-02T15:53:19.682Z,22.43
2018-05-02T15:55:49.314Z,21.94
2018-05-02T15:58:16.047Z,20.93
2018-05-02T16:00:42.542Z,20.96
2018-05-02T16:03:09.374Z,20.04
2018-05-02T16:05:39.867Z,19.99
2018-05-02T16:08:06.514Z,19.30
2018-05-02T16:10:33.332Z,19.45
2018-05-02T16:12:59.862Z,18.69
2018-05-02T16:15:30.089Z,19.04
2018-05-02T16:17:56.666Z,18.50
2018-05-02T16:20:23.365Z,18.98
2018-05-02T16:22:50.569Z,18.83
2018-05-02T16:25:20.427Z,18.35
2018-05-02T16:27:47.222Z,18.02
2018-05-02T16:30:13.769Z,17.88
2018-05-02T16:32:40.392Z,17.39
2018-05-02T16:35:08.077Z,17.37
2018-05-02T16:37:34.674Z,17.36
2018-05-02T16:40:01.231Z,17.16
2018-05-02T16:42:27.894Z,17.23
2018-05-02T16:44:54.818Z,16.65
2018-05-02T16:47:21.353Z,17.23
2018-05-02T16:49:48.035Z,16.90
2018-05-02T16:52:14.531Z,17.08
2018-05-02T16:54:51.427Z,17.29
2018-05-02T16:57:18.552Z,17.30
2018-05-02T16:59:45.198Z,17.26
2018-05-02T17:02:12.203Z,17.12
2018-05-02T17:04:44.334Z,17.30
2018-05-02T17:07:11.002Z,17.31
2018-05-02T17:09:37.601Z,16.98
2018-05-02T17:12:04.319Z,17.07
2018-05-02T17:14:32.274Z,16.96
2018-05-02T17:16:58.966Z,16.90
2018-05-02T17:19:25.535Z,17.02
2018-05-02T17:21:52.501Z,17.00
2018-05-02T17:24:25.013Z,17.24
2018-05-02T17:26:51.642Z,17.11
2018-05-02T17:29:18.427Z,16.89
2018-05-02T17:31:45.590Z,16.98
2018-05-02T17:34:15.498Z,17.29
2018-05-02T17:36:42.163Z,17.44
2018-05-02T17:39:08.751Z,17.34
2018-05-02T17:41:36.328Z,17.02
2018-05-02T17:44:06.972Z,17.22
2018-05-02T17:46:33.563Z,16.97
2018-05-02T17:49:00.009Z,16.73
2018-05-02T17:51:26.991Z,16.81
2018-05-02T17:54:00.195Z,16.99
2018-05-02T17:56:26.850Z,16.93
2018-05-02T17:58:53.522Z,17.05
2018-05-02T18:01:20.213Z,17.16
2018-05-02T18:03:51.415Z,17.41
2018-05-02T18:06:17.929Z,17.18
2018-05-02T18:08:44.937Z,16.69
2018-05-02T18:11:11.505Z,16.59
2018-05-02T18:13:41.606Z,16.63
2018-05-02T18:16:08.296Z,16.59
2018-05-02T18:18:35.029Z,16.60
2018-05-02T18:21:01.713Z,16.53
2018-05-02T18:23:31.841Z,16.51
2018-05-02T18:25:58.600Z,16.69
2018-05-02T18:28:25.227Z,16.85
2018-05-02T18:30:51.929Z,16.36
2018-05-02T18:33:25.968Z,16.53
2018-05-02T18:35:52.473Z,16.82
2018-05-02T18:38:19.190Z,16.52
2018-05-02T18:40:45.892Z,16.40
2018-05-02T18:43:18.698Z,16.93
2018-05-02T18:45:45.737Z,16.53
2018-05-02T18:48:12.398Z,16.63
2018-05-02T18:50:39.118Z,16.53
2018-05-02T18:53:06.484Z,16.57
2018-05-02T18:55:34.094Z,16.49
2018-05-02T18:58:00.832Z,16.54
2018-05-02T19:00:27.466Z,16.73
2018-05-02T19:02:54.132Z,16.71
2018-05-02T19:05:24.513Z,16.15
2018-05-02T19:07:51.156Z,16.38
2018-05-02T19:10:17.945Z,16.55
2018-05-02T19:12:44.650Z,16.27
2018-05-02T19:15:12.193Z,16.05
2018-05-02T19:20:36.939Z,15.82
2018-05-02T19:23:03.913Z,15.94
2018-05-02T19:25:36.598Z,16.07
2018-05-02T19:28:03.298Z,15.96
2018-05-02T19:30:29.857Z,15.76
2018-05-02T19:33:02.548Z,16.03
2018-05-02T19:35:29.289Z,15.85
2018-05-02T19:37:55.973Z,15.91
2018-05-02T19:40:28.598Z,15.89
2018-05-02T19:43:01.212Z,15.81
2018-05-02T19:45:27.922Z,15.62
2018-05-02T19:47:55.302Z,15.42
2018-05-02T19:50:21.913Z,15.55
2018-05-02T19:52:48.548Z,15.41
2018-05-02T19:55:18.575Z,15.48
2018-05-02T19:57:45.242Z,15.64
2018-05-02T20:00:17.952Z,15.38
2018-05-02T20:02:50.573Z,15.52
2018-05-02T20:05:17.306Z,15.18
2018-05-02T20:07:44.059Z,15.27
2018-05-02T20:10:16.730Z,15.47
2018-05-02T20:12:49.326Z,15.27
2018-05-02T20:15:16.026Z,15.32
2018-05-02T20:17:42.681Z,15.35
2018-05-02T20:20:09.402Z,15.41
2018-05-02T20:22:36.850Z,15.60
2018-05-02T20:25:07.318Z,15.56
2018-05-02T20:27:34.085Z,15.73
2018-05-02T20:30:00.729Z,15.55
2018-05-02T20:32:27.368Z,15.36
2018-05-02T20:34:57.468Z,15.08
2018-05-02T20:37:24.180Z,15.47
2018-05-02T20:39:50.858Z,15.42
2018-05-02T20:42:17.589Z,15.49
2018-05-02T20:44:44.392Z,15.11
2018-05-02T20:47:11.119Z,15.07
2018-05-02T20:49:37.701Z,15.11
2018-05-02T20:52:04.293Z,15.28
2018-05-02T20:54:32.020Z,15.13
2018-05-02T20:56:58.722Z,15.13
2018-05-02T20:59:25.281Z,15.37
2018-05-02T21:01:52.007Z,15.38
2018-05-02T21:04:18.700Z,15.31
2018-05-02T21:06:45.454Z,15.52
2018-05-02T21:09:12.223Z,15.12
2018-05-02T21:11:38.775Z,15.20
2018-05-02T21:14:07.446Z,15.34
2018-05-02T21:16:34.216Z,15.36
2018-05-02T21:19:00.952Z,15.24
2018-05-02T21:21:27.690Z,15.29
2018-05-02T21:23:57.277Z,15.22
2018-05-02T21:26:23.994Z,15.30
2018-05-02T21:28:51.460Z,14.72
2018-05-02T21:31:18.158Z,15.06
2018-05-02T21:33:49.765Z,15.13
2018-05-02T21:36:16.481Z,14.94
2018-05-02T21:38:43.179Z,15.15
2018-05-02T21:41:09.797Z,14.90
2018-05-02T21:43:40.389Z,15.12
2018-05-02T21:46:07.185Z,14.77
2018-05-02T21:48:34.020Z,14.66
2018-05-02T21:51:01.083Z,14.72
2018-05-02T21:53:31.534Z,14.68
2018-05-02T21:55:58.068Z,14.87
2018-05-02T21:58:24.705Z,14.94
2018-05-02T22:00:51.352Z,14.89
2018-05-02T22:03:19.269Z,14.61
2018-05-02T22:05:45.862Z,14.71
2018-05-02T22:08:12.503Z,14.55
2018-05-02T22:10:39.188Z,14.68
2018-05-02T22:13:05.960Z,14.46
2018-05-02T22:15:33.326Z,14.53
2018-05-02T22:18:00.231Z,14.49
2018-05-02T22:20:26.957Z,14.57
2018-05-02T22:22:56.628Z,14.58
2018-05-02T22:25:23.213Z,14.69
2018-05-02T22:27:49.937Z,14.73
2018-05-02T22:30:16.649Z,14.85
2018-05-02T22:32:44.326Z,14.54
2018-05-02T22:35:11.033Z,14.44
2018-05-02T22:37:37.730Z,14.52
2018-05-02T22:40:04.170Z,14.59
2018-05-02T22:42:30.835Z,14.61
2018-05-02T22:44:57.326Z,14.65
2018-05-02T22:47:23.814Z,14.52
2018-05-02T22:49:50.433Z,14.30
2018-05-02T22:52:17.157Z,14.45
2018-05-02T22:54:44.878Z,14.13
2018-05-02T22:57:11.509Z,14.37
2018-05-02T22:59:38.306Z,14.43
2018-05-02T23:02:04.937Z,14.41
2018-05-02T23:04:37.024Z,14.73
2018-05-02T23:07:03.709Z,14.48
2018-05-02T23:09:30.261Z,14.75
2018-05-02T23:11:57.324Z,14.48
2018-05-02T23:14:27.878Z,14.39
2018-05-02T23:16:54.518Z,14.26
2018-05-02T23:19:21.554Z,14.45
2018-05-02T23:21:48.023Z,14.17
2018-05-02T23:24:15.654Z,14.04
2018-05-02T23:26:42.310Z,14.21
2018-05-02T23:29:09.009Z,14.35
2018-05-02T23:31:36.021Z,14.49
2018-05-02T23:34:05.889Z,14.18
2018-05-02T23:36:32.684Z,14.10
2018-05-02T23:38:59.209Z,14.49
2018-05-02T23:41:25.974Z,14.49
2018-05-02T23:43:56.381Z,14.47
2018-05-02T23:46:22.972Z,14.63
2018-05-02T23:48:49.709Z,14.39
2018-05-02T23:51:16.189Z,14.08
2018-05-02T23:53:46.174Z,14.32
2018-05-02T23:56:12.937Z,14.34
2018-05-02T23:58:39.627Z,14.49
